createdAt,value
2023-01-06T00:00:26.177Z,39.62
2023-01-06T00:00:57.689Z,39.99
2023-01-06T00:01:29.122Z,40.11
2023-01-06T00:02:00.557Z,39.78
2023-01-06T00:02:32.014Z,40.45
2023-01-06T00:03:03.428Z,40.05
2023-01-06T00:03:34.903Z,40.02
2023-01-06T00:04:06.336Z,39.87
2023-01-06T00:04:37.830Z,39.99
2023-01-06T00:05:09.264Z,39.52
2023-01-06T00:05:40.770Z,39.62
2023-01-06T00:06:12.195Z,40.05
2023-01-06T00:06:43.600Z,39.85
2023-01-06T00:07:15.101Z,40.04
2023-01-06T00:07:46.515Z,39.94
2023-01-06T00:08:17.922Z,39.74
2023-01-06T00:08:49.534Z,39.86
2023-01-06T00:09:20.937Z,40.05
2023-01-06T00:09:52.350Z,39.88
2023-01-06T00:10:23.798Z,39.64
2023-01-06T00:10:55.228Z,40.15
2023-01-06T00:11:26.670Z,40.22
2023-01-06T00:11:58.131Z,39.64
2023-01-06T00:12:29.533Z,40.05
2023-01-06T00:13:00.943Z,40.05
2023-01-06T00:13:32.341Z,40.17
2023-01-06T00:14:03.844Z,40.01
2023-01-06T00:14:35.268Z,39.69
2023-01-06T00:15:06.679Z,39.96
2023-01-06T00:15:38.144Z,39.76
2023-01-06T00:16:09.570Z,40.12
2023-01-06T00:16:40.986Z,40.25
2023-01-06T00:17:12.386Z,40.00
2023-01-06T00:17:43.791Z,40.02
2023-01-06T00:18:15.208Z,39.86
2023-01-06T00:18:46.689Z,40.25
2023-01-06T00:19:18.175Z,39.77
2023-01-06T00:19:49.598Z,40.00
2023-01-06T00:20:21.014Z,39.97
2023-01-06T00:20:52.412Z,39.75
2023-01-06T00:21:23.832Z,40.23
2023-01-06T00:21:55.247Z,39.72
2023-01-06T00:22:26.665Z,40.43
2023-01-06T00:22:58.054Z,40.13
2023-01-06T00:23:29.470Z,39.93
2023-01-06T00:24:00.866Z,40.20
2023-01-06T00:24:32.335Z,39.80
2023-01-06T00:25:03.729Z,40.05
2023-01-06T00:25:35.131Z,40.30
2023-01-06T00:26:06.531Z,40.14
2023-01-06T00:26:37.955Z,40.00
2023-01-06T00:27:09.355Z,40.49
2023-01-06T00:27:40.774Z,40.24
2023-01-06T00:28:12.202Z,40.31
2023-01-06T00:28:43.609Z,39.94
2023-01-06T00:29:15.047Z,40.27
2023-01-06T00:29:46.595Z,40.20
2023-01-06T00:30:18.021Z,40.36
2023-01-06T00:30:49.432Z,40.35
2023-01-06T00:31:20.947Z,40.14
2023-01-06T00:31:52.414Z,40.26
2023-01-06T00:32:23.838Z,40.02
2023-01-06T00:32:55.275Z,40.09
2023-01-06T00:33:26.691Z,40.13
2023-01-06T00:33:58.111Z,40.09
2023-01-06T00:34:29.517Z,40.37
2023-01-06T00:35:01.072Z,40.36
2023-01-06T00:35:32.466Z,39.98
2023-01-06T00:36:03.887Z,40.05
2023-01-06T00:36:35.295Z,40.16
2023-01-06T00:37:06.708Z,40.02
2023-01-06T00:37:38.108Z,39.82
2023-01-06T00:38:09.519Z,40.04
2023-01-06T00:38:40.939Z,40.10
2023-01-06T00:39:12.344Z,40.18
2023-01-06T00:39:43.751Z,40.46
2023-01-06T00:40:15.199Z,39.85
2023-01-06T00:40:46.619Z,40.20
2023-01-06T00:41:18.024Z,39.72
2023-01-06T00:41:49.434Z,40.00
2023-01-06T00:42:20.850Z,40.48
2023-01-06T00:42:52.257Z,40.15
2023-01-06T00:43:23.662Z,40.10
2023-01-06T00:43:55.072Z,40.42
2023-01-06T00:44:26.480Z,40.03
2023-01-06T00:44:57.894Z,40.26
2023-01-06T00:45:29.342Z,40.33
2023-01-06T00:46:00.787Z,40.40
2023-01-06T00:46:32.232Z,39.89
2023-01-06T00:47:03.622Z,40.42
2023-01-06T00:47:35.027Z,40.13
2023-01-06T00:48:06.430Z,40.01
2023-01-06T00:48:37.835Z,40.08
2023-01-06T00:49:09.248Z,40.26
2023-01-06T00:49:40.647Z,40.30
2023-01-06T00:50:12.040Z,40.06
2023-01-06T00:50:43.550Z,40.28
2023-01-06T00:51:14.951Z,40.12
2023-01-06T00:51:46.346Z,40.42
2023-01-06T00:52:17.751Z,40.41
2023-01-06T00:52:49.170Z,40.14
2023-01-06T00:53:20.571Z,40.01
2023-01-06T00:53:51.979Z,40.27
2023-01-06T00:54:23.400Z,40.12
2023-01-06T00:54:54.794Z,39.81
2023-01-06T00:55:26.214Z,40.39
2023-01-06T00:55:57.715Z,40.40
2023-01-06T00:56:29.120Z,40.39
2023-01-06T00:57:00.523Z,40.43
2023-01-06T00:57:31.927Z,40.51
2023-01-06T00:58:03.335Z,40.54
2023-01-06T00:58:34.738Z,39.96
2023-01-06T00:59:06.143Z,40.17
2023-01-06T00:59:37.553Z,40.31
2023-01-06T01:00:08.950Z,40.48
2023-01-06T01:00:40.361Z,40.14
2023-01-06T01:01:11.902Z,40.48
2023-01-06T01:01:43.446Z,40.37
2023-01-06T01:02:15.041Z,40.43
2023-01-06T01:02:46.572Z,40.47
2023-01-06T01:03:18.110Z,40.27
2023-01-06T01:03:49.560Z,40.26
2023-01-06T01:04:20.971Z,39.94
2023-01-06T01:04:52.382Z,40.46
2023-01-06T01:05:23.785Z,40.06
2023-01-06T01:05:55.175Z,40.38
2023-01-06T01:06:26.698Z,40.33
2023-01-06T01:06:58.133Z,40.48
2023-01-06T01:07:29.556Z,40.64
2023-01-06T01:08:00.963Z,40.53
2023-01-06T01:08:32.358Z,40.35
2023-01-06T01:09:03.781Z,40.70
2023-01-06T01:09:35.186Z,40.41
2023-01-06T01:10:06.594Z,40.18
2023-01-06T01:10:37.994Z,40.19
2023-01-06T01:11:09.405Z,40.31
2023-01-06T01:11:40.933Z,40.11
2023-01-06T01:12:12.337Z,40.39
2023-01-06T01:12:43.764Z,40.41
2023-01-06T01:13:15.175Z,40.32
2023-01-06T01:13:46.583Z,40.42
2023-01-06T01:14:18.015Z,40.28
2023-01-06T01:14:49.435Z,40.07
2023-01-06T01:15:20.866Z,40.38
2023-01-06T01:15:52.297Z,40.05
2023-01-06T01:16:23.728Z,40.35
2023-01-06T01:16:55.174Z,40.26
2023-01-06T01:17:26.574Z,40.35
2023-01-06T01:17:57.997Z,40.46
2023-01-06T01:18:29.418Z,40.22
2023-01-06T01:19:00.848Z,40.11
2023-01-06T01:19:32.256Z,40.66
2023-01-06T01:20:03.656Z,40.75
2023-01-06T01:20:35.089Z,40.59
2023-01-06T01:21:06.520Z,40.35
2023-01-06T01:21:37.925Z,40.46
2023-01-06T01:22:09.351Z,40.53
2023-01-06T01:22:40.815Z,40.67
2023-01-06T01:23:12.235Z,40.61
2023-01-06T01:23:43.643Z,40.56
2023-01-06T01:24:15.132Z,40.61
2023-01-06T01:24:46.545Z,40.78
2023-01-06T01:25:17.941Z,40.49
2023-01-06T01:25:49.368Z,40.81
2023-01-06T01:26:20.775Z,40.51
2023-01-06T01:26:52.210Z,40.81
2023-01-06T01:27:23.735Z,40.86
2023-01-06T01:27:55.159Z,40.59
2023-01-06T01:28:26.587Z,40.70
2023-01-06T01:28:57.988Z,40.43
2023-01-06T01:29:29.407Z,40.35
2023-01-06T01:30:00.800Z,40.55
2023-01-06T01:30:32.211Z,40.50
2023-01-06T01:31:03.678Z,40.82
2023-01-06T01:31:35.103Z,40.61
2023-01-06T01:32:06.506Z,40.22
2023-01-06T01:32:37.996Z,40.31
2023-01-06T01:33:09.398Z,40.15
2023-01-06T01:33:40.821Z,40.68
2023-01-06T01:34:12.254Z,40.60
2023-01-06T01:34:43.673Z,40.27
2023-01-06T01:35:15.100Z,40.54
2023-01-06T01:35:46.498Z,40.57
2023-01-06T01:36:17.955Z,40.48
2023-01-06T01:36:49.380Z,40.76
2023-01-06T01:37:20.774Z,40.31
2023-01-06T01:37:52.246Z,40.59
2023-01-06T01:38:23.642Z,40.53
2023-01-06T01:38:55.045Z,40.77
2023-01-06T01:39:26.461Z,40.75
2023-01-06T01:39:57.893Z,40.25
2023-01-06T01:40:29.325Z,40.33
2023-01-06T01:41:00.746Z,40.46
2023-01-06T01:41:32.153Z,40.64
2023-01-06T01:42:03.578Z,40.70
2023-01-06T01:42:34.979Z,40.88
2023-01-06T01:43:06.607Z,40.33
2023-01-06T01:43:38.084Z,40.77
2023-01-06T01:44:09.520Z,40.33
2023-01-06T01:44:40.938Z,40.55
2023-01-06T01:45:12.335Z,40.73
2023-01-06T01:45:43.762Z,40.71
2023-01-06T01:46:15.179Z,40.81
2023-01-06T01:46:46.633Z,40.38
2023-01-06T01:47:18.047Z,40.30
2023-01-06T01:47:49.468Z,40.29
2023-01-06T01:48:20.967Z,40.55
2023-01-06T01:48:52.395Z,40.38
2023-01-06T01:49:23.795Z,40.42
2023-01-06T01:49:55.227Z,40.83
2023-01-06T01:50:26.626Z,40.58
2023-01-06T01:50:58.036Z,40.86
2023-01-06T01:51:29.445Z,40.57
2023-01-06T01:52:00.851Z,40.62
2023-01-06T01:52:32.267Z,40.34
2023-01-06T01:53:03.679Z,40.74
2023-01-06T01:53:35.241Z,40.65
2023-01-06T01:54:06.634Z,40.90
2023-01-06T01:54:38.035Z,40.62
2023-01-06T01:55:09.489Z,40.61
2023-01-06T01:55:40.921Z,40.64
2023-01-06T01:56:12.327Z,40.62
2023-01-06T01:56:43.728Z,40.56
2023-01-06T01:57:15.122Z,40.39
2023-01-06T01:57:46.523Z,41.05
2023-01-06T01:58:17.922Z,40.51
2023-01-06T01:58:49.354Z,40.01
2023-01-06T01:59:20.752Z,40.38
2023-01-06T01:59:52.194Z,40.61
2023-01-06T02:00:23.610Z,40.55
2023-01-06T02:00:55.020Z,40.41
2023-01-06T02:01:26.531Z,40.65
2023-01-06T02:01:58.153Z,40.48
2023-01-06T02:02:29.801Z,40.65
2023-01-06T02:03:01.344Z,40.83
2023-01-06T02:03:32.767Z,40.43
2023-01-06T02:04:04.179Z,40.71
2023-01-06T02:04:35.579Z,40.29
2023-01-06T02:05:07.006Z,40.65
2023-01-06T02:05:38.407Z,40.40
2023-01-06T02:06:09.802Z,41.00
2023-01-06T02:06:41.219Z,40.55
2023-01-06T02:07:12.636Z,40.75
2023-01-06T02:07:44.043Z,40.37
2023-01-06T02:08:15.446Z,40.49
2023-01-06T02:08:46.850Z,40.63
2023-01-06T02:09:18.329Z,40.45
2023-01-06T02:09:49.746Z,40.63
2023-01-06T02:10:21.149Z,40.33
2023-01-06T02:10:52.559Z,40.54
2023-01-06T02:11:23.975Z,40.27
2023-01-06T02:11:55.378Z,40.29
2023-01-06T02:12:26.777Z,40.54
2023-01-06T02:12:58.183Z,40.30
2023-01-06T02:13:29.608Z,40.50
2023-01-06T02:14:01.065Z,40.57
2023-01-06T02:14:32.517Z,40.84
2023-01-06T02:15:03.953Z,40.49
2023-01-06T02:15:35.351Z,40.72
2023-01-06T02:16:06.914Z,40.69
2023-01-06T02:16:38.381Z,40.25
2023-01-06T02:17:09.785Z,40.60
2023-01-06T02:17:41.199Z,40.59
2023-01-06T02:18:12.607Z,40.80
2023-01-06T02:18:44.004Z,40.88
2023-01-06T02:19:15.531Z,40.91
2023-01-06T02:19:46.932Z,40.54
2023-01-06T02:20:18.332Z,40.93
2023-01-06T02:20:49.742Z,40.68
2023-01-06T02:21:21.151Z,40.63
2023-01-06T02:21:52.550Z,40.39
2023-01-06T02:22:23.958Z,40.79
2023-01-06T02:22:55.356Z,41.04
2023-01-06T02:23:26.765Z,40.36
2023-01-06T02:23:58.203Z,40.83
2023-01-06T02:24:29.646Z,40.67
2023-01-06T02:25:01.060Z,41.01
2023-01-06T02:25:32.492Z,40.57
2023-01-06T02:26:03.916Z,40.47
2023-01-06T02:26:35.386Z,40.69
2023-01-06T02:27:06.827Z,40.98
2023-01-06T02:27:38.235Z,41.05
2023-01-06T02:28:09.651Z,40.71
2023-01-06T02:28:41.043Z,40.88
2023-01-06T02:29:12.465Z,40.63
2023-01-06T02:29:43.959Z,40.67
2023-01-06T02:30:15.362Z,40.98
2023-01-06T02:30:46.823Z,41.08
2023-01-06T02:31:18.310Z,40.92
2023-01-06T02:31:49.759Z,40.76
2023-01-06T02:32:21.153Z,40.56
2023-01-06T02:32:52.540Z,40.47
2023-01-06T02:33:23.955Z,41.03
2023-01-06T02:33:55.351Z,40.43
2023-01-06T02:34:26.760Z,40.51
2023-01-06T02:34:58.223Z,40.67
2023-01-06T02:35:29.627Z,40.86
2023-01-06T02:36:01.051Z,40.61
2023-01-06T02:36:32.462Z,40.63
2023-01-06T02:37:03.892Z,40.48
2023-01-06T02:37:35.314Z,40.43
2023-01-06T02:38:06.753Z,40.40
2023-01-06T02:38:38.150Z,40.78
2023-01-06T02:39:09.555Z,40.60
2023-01-06T02:39:40.972Z,40.75
2023-01-06T02:40:12.510Z,40.58
2023-01-06T02:40:43.911Z,40.95
2023-01-06T02:41:15.323Z,40.52
2023-01-06T02:41:46.720Z,40.77
2023-01-06T02:42:18.125Z,40.74
2023-01-06T02:42:49.527Z,40.82
2023-01-06T02:43:20.942Z,41.21
2023-01-06T02:43:52.347Z,41.08
2023-01-06T02:44:23.759Z,40.54
2023-01-06T02:44:55.163Z,40.59
2023-01-06T02:45:26.623Z,40.99
2023-01-06T02:45:58.033Z,41.10
2023-01-06T02:46:29.497Z,40.98
2023-01-06T02:47:00.949Z,40.70
2023-01-06T02:47:32.354Z,40.69
2023-01-06T02:48:03.777Z,40.65
2023-01-06T02:48:35.180Z,40.39
2023-01-06T02:49:06.574Z,41.04
2023-01-06T02:49:37.974Z,40.48
2023-01-06T02:50:09.391Z,40.98
2023-01-06T02:50:40.944Z,41.11
2023-01-06T02:51:12.379Z,40.80
2023-01-06T02:51:43.804Z,40.87
2023-01-06T02:52:15.206Z,40.41
2023-01-06T02:52:46.607Z,40.98
2023-01-06T02:53:18.035Z,40.94
2023-01-06T02:53:49.450Z,40.92
2023-01-06T02:54:20.851Z,40.88
2023-01-06T02:54:52.307Z,40.62
2023-01-06T02:55:23.715Z,40.42
2023-01-06T02:55:55.195Z,40.64
2023-01-06T02:56:26.611Z,41.13
2023-01-06T02:56:58.019Z,40.52
2023-01-06T02:57:29.427Z,41.38
2023-01-06T02:58:00.823Z,40.74
2023-01-06T02:58:32.304Z,40.64
2023-01-06T02:59:03.712Z,40.57
2023-01-06T02:59:35.106Z,40.75
2023-01-06T03:00:06.518Z,41.06
2023-01-06T03:00:37.923Z,40.74
2023-01-06T03:01:09.495Z,40.54
2023-01-06T03:01:41.064Z,40.72
2023-01-06T03:02:12.648Z,41.19
2023-01-06T03:02:44.090Z,40.81
2023-01-06T03:03:15.495Z,40.51
2023-01-06T03:03:46.914Z,40.77
2023-01-06T03:04:18.376Z,40.75
2023-01-06T03:04:49.907Z,40.59
2023-01-06T03:05:21.361Z,40.81
2023-01-06T03:05:52.797Z,40.64
2023-01-06T03:06:24.322Z,41.12
2023-01-06T03:06:55.722Z,40.91
2023-01-06T03:07:27.166Z,41.00
2023-01-06T03:07:58.579Z,40.89
2023-01-06T03:08:29.987Z,40.69
2023-01-06T03:09:01.455Z,41.40
2023-01-06T03:09:32.868Z,40.60
2023-01-06T03:10:04.275Z,41.13
2023-01-06T03:10:35.687Z,41.27
2023-01-06T03:11:07.102Z,40.92
2023-01-06T03:11:38.599Z,40.88
2023-01-06T03:12:10.027Z,41.30
2023-01-06T03:12:41.434Z,41.21
2023-01-06T03:13:12.847Z,40.91
2023-01-06T03:13:44.298Z,41.08
2023-01-06T03:14:15.672Z,41.12
2023-01-06T03:14:47.095Z,41.27
2023-01-06T03:15:18.546Z,40.63
2023-01-06T03:15:49.971Z,40.72
2023-01-06T03:16:21.430Z,40.90
2023-01-06T03:16:52.861Z,40.60
2023-01-06T03:17:24.275Z,41.10
2023-01-06T03:17:55.700Z,40.88
2023-01-06T03:18:27.125Z,40.91
2023-01-06T03:18:58.541Z,40.70
2023-01-06T03:19:29.950Z,41.18
2023-01-06T03:20:01.452Z,41.06
2023-01-06T03:20:32.863Z,40.66
2023-01-06T03:21:04.285Z,40.48
2023-01-06T03:21:35.780Z,40.60
2023-01-06T03:22:07.175Z,40.84
2023-01-06T03:22:38.579Z,41.08
2023-01-06T03:23:10.005Z,41.00
2023-01-06T03:23:41.425Z,41.01
2023-01-06T03:24:12.828Z,40.84
2023-01-06T03:24:44.246Z,40.88
2023-01-06T03:25:15.661Z,40.99
2023-01-06T03:25:47.054Z,40.63
2023-01-06T03:26:18.452Z,41.05
2023-01-06T03:26:49.945Z,40.70
2023-01-06T03:27:21.343Z,40.69
2023-01-06T03:27:52.847Z,41.16
2023-01-06T03:28:24.270Z,40.97
2023-01-06T03:28:55.682Z,40.78
2023-01-06T03:29:27.083Z,41.00
2023-01-06T03:29:58.495Z,41.15
2023-01-06T03:30:29.901Z,40.95
2023-01-06T03:31:01.310Z,41.29
2023-01-06T03:31:32.774Z,40.89
2023-01-06T03:32:04.259Z,40.86
2023-01-06T03:32:35.703Z,40.70
2023-01-06T03:33:08.459Z,41.28
2023-01-06T03:33:40.014Z,40.69
2023-01-06T03:34:11.415Z,40.78
2023-01-06T03:34:42.838Z,41.00
2023-01-06T03:35:14.243Z,41.21
2023-01-06T03:35:45.676Z,40.94
2023-01-06T03:36:17.131Z,40.64
2023-01-06T03:36:48.535Z,41.16
2023-01-06T03:37:20.033Z,40.63
2023-01-06T03:37:51.443Z,40.91
2023-01-06T03:38:22.846Z,41.00
2023-01-06T03:38:54.249Z,40.60
2023-01-06T03:39:25.677Z,41.20
2023-01-06T03:39:57.077Z,41.01
2023-01-06T03:40:28.496Z,40.85
2023-01-06T03:40:59.886Z,40.84
2023-01-06T03:41:31.298Z,40.99
2023-01-06T03:42:02.741Z,41.26
2023-01-06T03:42:36.481Z,41.07
2023-01-06T03:43:08.193Z,41.00
2023-01-06T03:43:39.592Z,40.77
2023-01-06T03:44:10.988Z,40.45
2023-01-06T03:44:42.406Z,40.86
2023-01-06T03:45:13.843Z,40.87
2023-01-06T03:45:45.255Z,40.31
2023-01-06T03:46:16.731Z,41.07
2023-01-06T03:46:48.271Z,40.81
2023-01-06T03:47:19.699Z,41.07
2023-01-06T03:47:51.201Z,41.64
2023-01-06T03:48:22.601Z,41.32
2023-01-06T03:48:54.028Z,41.35
2023-01-06T03:49:25.438Z,41.40
2023-01-06T03:49:56.848Z,41.07
2023-01-06T03:50:28.263Z,41.33
2023-01-06T03:50:59.665Z,41.26
2023-01-06T03:51:31.093Z,41.85
2023-01-06T03:52:02.506Z,41.61
2023-01-06T03:52:33.902Z,41.68
2023-01-06T03:53:05.362Z,42.01
2023-01-06T03:53:36.786Z,41.76
2023-01-06T03:54:08.220Z,41.64
2023-01-06T03:54:39.631Z,41.39
2023-01-06T03:55:11.039Z,41.49
2023-01-06T03:55:42.441Z,41.32
2023-01-06T03:56:13.847Z,41.29
2023-01-06T03:56:45.269Z,41.05
2023-01-06T03:57:16.666Z,41.70
2023-01-06T03:57:48.078Z,42.05
2023-01-06T03:58:19.515Z,41.83
2023-01-06T03:58:50.932Z,41.76
2023-01-06T03:59:22.332Z,41.41
2023-01-06T03:59:53.737Z,41.66
2023-01-06T04:00:25.156Z,42.08
2023-01-06T04:00:56.600Z,41.90
2023-01-06T04:01:28.063Z,41.44
2023-01-06T04:01:59.499Z,41.64
2023-01-06T04:02:30.898Z,41.48
2023-01-06T04:03:02.357Z,41.40
2023-01-06T04:03:33.927Z,41.33
2023-01-06T04:04:05.383Z,41.36
2023-01-06T04:04:36.811Z,41.73
2023-01-06T04:05:08.251Z,41.33
2023-01-06T04:05:39.652Z,41.39
2023-01-06T04:06:11.059Z,41.72
2023-01-06T04:06:42.476Z,41.23
2023-01-06T04:07:13.876Z,41.51
2023-01-06T04:07:45.289Z,41.16
2023-01-06T04:08:16.692Z,41.24
2023-01-06T04:08:48.246Z,41.46
2023-01-06T04:09:19.650Z,41.26
2023-01-06T04:09:51.080Z,41.39
2023-01-06T04:10:22.527Z,41.76
2023-01-06T04:10:53.926Z,41.66
2023-01-06T04:11:25.328Z,41.37
2023-01-06T04:11:56.728Z,41.21
2023-01-06T04:12:28.131Z,41.33
2023-01-06T04:12:59.590Z,41.09
2023-01-06T04:13:31.016Z,41.40
2023-01-06T04:14:02.513Z,41.67
2023-01-06T04:14:33.938Z,41.55
2023-01-06T04:15:05.363Z,41.33
2023-01-06T04:15:36.764Z,41.15
2023-01-06T04:16:08.193Z,41.44
2023-01-06T04:16:39.643Z,40.99
2023-01-06T04:17:13.547Z,41.30
2023-01-06T04:17:45.095Z,41.56
2023-01-06T04:18:16.488Z,41.17
2023-01-06T04:18:47.921Z,41.49
2023-01-06T04:19:19.650Z,41.65
2023-01-06T04:19:51.059Z,41.43
2023-01-06T04:20:22.474Z,41.22
2023-01-06T04:20:53.978Z,41.41
2023-01-06T04:21:25.381Z,41.07
2023-01-06T04:21:56.796Z,40.95
2023-01-06T04:22:28.197Z,41.16
2023-01-06T04:22:59.609Z,41.26
2023-01-06T04:23:31.029Z,40.85
2023-01-06T04:24:02.450Z,41.54
2023-01-06T04:24:33.971Z,41.67
2023-01-06T04:25:05.388Z,41.20
2023-01-06T04:25:36.850Z,40.86
2023-01-06T04:26:08.260Z,41.51
2023-01-06T04:26:39.671Z,41.78
2023-01-06T04:27:11.097Z,41.44
2023-01-06T04:27:42.516Z,41.41
2023-01-06T04:28:13.923Z,41.37
2023-01-06T04:28:45.319Z,41.33
2023-01-06T04:29:16.722Z,41.03
2023-01-06T04:29:48.190Z,41.21
2023-01-06T04:30:19.589Z,41.44
2023-01-06T04:30:50.987Z,40.92
2023-01-06T04:31:22.432Z,41.26
2023-01-06T04:31:53.901Z,41.60
2023-01-06T04:32:25.331Z,41.29
2023-01-06T04:32:56.726Z,41.17
2023-01-06T04:33:28.138Z,41.40
2023-01-06T04:33:59.532Z,41.68
2023-01-06T04:34:30.935Z,41.29
2023-01-06T04:35:02.435Z,41.41
2023-01-06T04:35:33.850Z,41.38
2023-01-06T04:36:05.241Z,41.28
2023-01-06T04:36:36.647Z,41.14
2023-01-06T04:37:08.046Z,41.43
2023-01-06T04:37:39.437Z,41.37
2023-01-06T04:38:10.851Z,41.24
2023-01-06T04:38:42.246Z,41.76
2023-01-06T04:39:13.665Z,41.39
2023-01-06T04:39:45.062Z,41.67
2023-01-06T04:40:16.814Z,41.79
2023-01-06T04:40:48.214Z,41.50
2023-01-06T04:41:19.666Z,41.07
2023-01-06T04:41:51.076Z,41.72
2023-01-06T04:42:22.495Z,41.75
2023-01-06T04:42:53.916Z,41.41
2023-01-06T04:43:25.314Z,41.25
2023-01-06T04:43:58.175Z,41.01
2023-01-06T04:44:29.676Z,41.28
2023-01-06T04:45:01.107Z,41.53
2023-01-06T04:45:32.693Z,41.41
2023-01-06T04:46:04.209Z,41.23
2023-01-06T04:46:35.646Z,41.32
2023-01-06T04:47:07.058Z,41.15
2023-01-06T04:47:38.468Z,41.17
2023-01-06T04:48:09.862Z,41.71
2023-01-06T04:48:41.274Z,41.32
2023-01-06T04:49:12.698Z,40.90
2023-01-06T04:49:44.106Z,40.90
2023-01-06T04:50:15.605Z,41.05
2023-01-06T04:50:47.097Z,41.10
2023-01-06T04:51:18.517Z,41.78
2023-01-06T04:51:49.905Z,41.35
2023-01-06T04:52:21.309Z,41.21
2023-01-06T04:52:52.725Z,41.82
2023-01-06T04:53:24.125Z,41.19
2023-01-06T04:53:55.518Z,41.45
2023-01-06T04:54:26.949Z,41.49
2023-01-06T04:54:58.338Z,41.29
2023-01-06T04:55:29.751Z,41.09
2023-01-06T04:56:01.247Z,41.20
2023-01-06T04:56:32.654Z,41.00
2023-01-06T04:57:04.087Z,40.91
2023-01-06T04:57:35.545Z,41.37
2023-01-06T04:58:06.945Z,41.33
2023-01-06T04:58:38.345Z,41.30
2023-01-06T04:59:09.741Z,40.94
2023-01-06T04:59:41.162Z,41.06
2023-01-06T05:00:12.583Z,41.42
2023-01-06T05:00:44.021Z,41.47
2023-01-06T05:01:15.811Z,40.79
2023-01-06T05:01:47.328Z,41.27
2023-01-06T05:02:18.741Z,41.47
2023-01-06T05:02:50.164Z,41.06
2023-01-06T05:03:21.573Z,41.50
2023-01-06T05:03:53.032Z,41.95
2023-01-06T05:04:24.474Z,41.35
2023-01-06T05:04:55.889Z,41.20
2023-01-06T05:05:27.293Z,41.43
2023-01-06T05:05:58.686Z,41.50
2023-01-06T05:06:30.196Z,41.13
2023-01-06T05:07:01.591Z,41.36
2023-01-06T05:07:33.019Z,41.13
2023-01-06T05:08:04.412Z,40.90
2023-01-06T05:08:35.811Z,41.07
2023-01-06T05:09:07.225Z,41.50
2023-01-06T05:09:38.717Z,41.19
2023-01-06T05:10:10.123Z,41.07
2023-01-06T05:10:41.546Z,41.13
2023-01-06T05:11:12.952Z,41.60
2023-01-06T05:11:44.445Z,41.25
2023-01-06T05:12:15.839Z,40.72
2023-01-06T05:12:47.239Z,41.03
2023-01-06T05:13:18.659Z,40.94
2023-01-06T05:13:50.073Z,41.08
2023-01-06T05:14:21.495Z,41.05
2023-01-06T05:14:53.060Z,40.78
2023-01-06T05:15:24.467Z,41.78
2023-01-06T05:15:55.891Z,41.23
2023-01-06T05:16:27.513Z,41.04
2023-01-06T05:16:59.215Z,41.15
2023-01-06T05:17:30.615Z,41.35
2023-01-06T05:18:02.116Z,41.03
2023-01-06T05:18:33.529Z,41.39
2023-01-06T05:19:04.918Z,40.80
2023-01-06T05:19:36.327Z,40.82
2023-01-06T05:20:07.735Z,41.56
2023-01-06T05:20:39.136Z,41.21
2023-01-06T05:21:10.565Z,41.31
2023-01-06T05:21:41.965Z,41.62
2023-01-06T05:22:13.487Z,41.19
2023-01-06T05:22:44.900Z,41.79
2023-01-06T05:23:16.352Z,41.34
2023-01-06T05:23:47.763Z,41.00
2023-01-06T05:24:19.186Z,41.10
2023-01-06T05:24:50.581Z,41.54
2023-01-06T05:25:22.004Z,41.22
2023-01-06T05:25:53.407Z,41.15
2023-01-06T05:26:24.817Z,41.57
2023-01-06T05:26:56.226Z,41.55
2023-01-06T05:27:27.753Z,41.01
2023-01-06T05:27:59.173Z,41.58
2023-01-06T05:28:30.576Z,41.46
2023-01-06T05:29:01.971Z,41.11
2023-01-06T05:29:33.379Z,40.91
2023-01-06T05:30:04.909Z,41.03
2023-01-06T05:30:36.329Z,41.33
2023-01-06T05:31:07.732Z,40.90
2023-01-06T05:31:39.225Z,41.22
2023-01-06T05:32:10.666Z,41.73
2023-01-06T05:32:42.123Z,40.95
2023-01-06T05:33:13.548Z,40.79
2023-01-06T05:33:44.958Z,41.55
2023-01-06T05:34:16.381Z,41.02
2023-01-06T05:34:47.801Z,41.01
2023-01-06T05:35:19.196Z,41.48
2023-01-06T05:35:50.599Z,41.41
2023-01-06T05:36:22.006Z,40.98
2023-01-06T05:36:53.413Z,41.06
2023-01-06T05:37:24.829Z,41.17
2023-01-06T05:37:56.278Z,40.81
2023-01-06T05:38:27.678Z,41.06
2023-01-06T05:38:59.133Z,40.94
2023-01-06T05:39:30.540Z,40.58
2023-01-06T05:40:02.016Z,40.92
2023-01-06T05:40:33.419Z,41.13
2023-01-06T05:41:04.830Z,40.80
2023-01-06T05:41:36.255Z,41.77
2023-01-06T05:42:07.666Z,41.71
2023-01-06T05:42:39.075Z,41.67
2023-01-06T05:43:10.546Z,41.23
2023-01-06T05:43:41.960Z,40.85
2023-01-06T05:44:13.362Z,40.96
2023-01-06T05:44:44.767Z,41.14
2023-01-06T05:45:16.185Z,41.19
2023-01-06T05:45:47.624Z,41.69
2023-01-06T05:46:19.044Z,41.79
2023-01-06T05:46:50.467Z,41.61
2023-01-06T05:47:21.907Z,41.66
2023-01-06T05:47:53.317Z,42.16
2023-01-06T05:48:24.760Z,41.59
2023-01-06T05:48:56.179Z,41.45
2023-01-06T05:49:27.574Z,41.51
2023-01-06T05:49:58.976Z,41.73
2023-01-06T05:50:30.377Z,41.60
2023-01-06T05:51:01.778Z,41.84
2023-01-06T05:51:33.179Z,41.60
2023-01-06T05:52:04.587Z,41.50
2023-01-06T05:52:36.042Z,41.63
2023-01-06T05:53:07.441Z,41.39
2023-01-06T05:53:38.977Z,41.95
2023-01-06T05:54:10.379Z,41.67
2023-01-06T05:54:41.782Z,41.55
2023-01-06T05:55:13.193Z,41.66
2023-01-06T05:55:44.607Z,41.12
2023-01-06T05:56:16.010Z,41.33
2023-01-06T05:56:47.412Z,40.95
2023-01-06T05:57:18.823Z,41.50
2023-01-06T05:57:50.218Z,41.48
2023-01-06T05:58:21.627Z,41.12
2023-01-06T05:58:53.118Z,41.61
2023-01-06T05:59:24.514Z,41.28
2023-01-06T05:59:55.946Z,41.22
2023-01-06T06:00:27.356Z,41.30
2023-01-06T06:00:58.797Z,41.22
2023-01-06T06:01:30.265Z,41.09
2023-01-06T06:02:01.687Z,41.35
2023-01-06T06:02:33.187Z,41.46
2023-01-06T06:03:04.654Z,40.96
2023-01-06T06:03:36.109Z,40.80
2023-01-06T06:04:07.650Z,41.03
2023-01-06T06:04:39.151Z,41.19
2023-01-06T06:05:10.563Z,41.50
2023-01-06T06:05:42.056Z,41.25
2023-01-06T06:06:13.482Z,40.86
2023-01-06T06:06:44.922Z,41.08
2023-01-06T06:07:16.331Z,41.16
2023-01-06T06:07:47.735Z,41.13
2023-01-06T06:08:19.125Z,40.86
2023-01-06T06:08:50.516Z,40.91
2023-01-06T06:09:22.078Z,41.01
2023-01-06T06:09:53.519Z,41.09
2023-01-06T06:10:24.930Z,41.06
2023-01-06T06:10:56.328Z,41.42
2023-01-06T06:11:27.783Z,41.01
2023-01-06T06:11:59.179Z,40.49
2023-01-06T06:12:30.574Z,41.19
2023-01-06T06:13:01.987Z,40.63
2023-01-06T06:13:33.388Z,40.67
2023-01-06T06:14:04.781Z,41.03
2023-01-06T06:14:36.225Z,40.72
2023-01-06T06:15:07.620Z,40.71
2023-01-06T06:15:39.013Z,40.87
2023-01-06T06:16:10.450Z,41.03
2023-01-06T06:16:41.942Z,40.63
2023-01-06T06:17:13.357Z,40.66
2023-01-06T06:17:44.769Z,40.50
2023-01-06T06:18:16.168Z,40.45
2023-01-06T06:18:47.567Z,40.91
2023-01-06T06:19:18.990Z,40.85
2023-01-06T06:19:50.515Z,40.79
2023-01-06T06:20:21.907Z,41.14
2023-01-06T06:20:53.297Z,40.54
2023-01-06T06:21:24.683Z,41.11
2023-01-06T06:21:56.081Z,41.09
2023-01-06T06:22:27.474Z,40.74
2023-01-06T06:22:58.883Z,40.78
2023-01-06T06:23:30.289Z,40.57
2023-01-06T06:24:01.705Z,40.80
2023-01-06T06:24:33.116Z,40.89
2023-01-06T06:25:04.770Z,40.78
2023-01-06T06:25:36.184Z,40.66
2023-01-06T06:26:07.592Z,40.89
2023-01-06T06:26:38.993Z,40.66
2023-01-06T06:27:10.389Z,40.91
2023-01-06T06:27:41.791Z,40.59
2023-01-06T06:28:13.215Z,40.83
2023-01-06T06:28:44.685Z,41.03
2023-01-06T06:29:16.129Z,40.91
2023-01-06T06:29:47.550Z,40.40
2023-01-06T06:30:19.027Z,40.67
2023-01-06T06:30:50.434Z,40.79
2023-01-06T06:31:21.859Z,41.01
2023-01-06T06:31:53.315Z,40.63
2023-01-06T06:32:24.722Z,40.74
2023-01-06T06:32:56.131Z,40.57
2023-01-06T06:33:27.551Z,40.77
2023-01-06T06:33:58.957Z,40.75
2023-01-06T06:34:30.369Z,40.54
2023-01-06T06:35:01.767Z,41.11
2023-01-06T06:35:33.290Z,40.76
2023-01-06T06:36:04.699Z,40.47
2023-01-06T06:36:36.106Z,40.69
2023-01-06T06:37:07.523Z,40.74
2023-01-06T06:37:38.925Z,40.72
2023-01-06T06:38:10.336Z,40.72
2023-01-06T06:38:41.735Z,40.87
2023-01-06T06:39:13.151Z,41.06
2023-01-06T06:39:44.549Z,41.07
2023-01-06T06:40:15.972Z,41.03
2023-01-06T06:40:47.464Z,41.44
2023-01-06T06:41:18.868Z,40.87
2023-01-06T06:41:50.271Z,41.21
2023-01-06T06:42:21.668Z,41.08
2023-01-06T06:42:53.066Z,41.37
2023-01-06T06:43:24.509Z,41.06
2023-01-06T06:43:55.969Z,41.29
2023-01-06T06:44:27.437Z,40.99
2023-01-06T06:44:58.824Z,41.04